createdAt,value
2023-05-15T00:00:22.952Z,12.47
2023-05-15T00:02:50.302Z,12.61
2023-05-15T00:05:17.424Z,12.56
2023-05-15T00:07:44.546Z,12.88
2023-05-15T00:10:13.947Z,13.09
2023-05-15T00:12:41.035Z,13.17
2023-05-15T00:15:09.058Z,13.02
2023-05-15T00:17:36.133Z,13.24
2023-05-15T00:20:04.775Z,13.77
2023-05-15T00:22:31.844Z,13.74
2023-05-15T00:24:59.558Z,13.74
2023-05-15T00:27:27.940Z,13.53
2023-05-15T00:29:55.062Z,13.29
2023-05-15T00:32:22.266Z,12.74
2023-05-15T00:34:49.284Z,12.05
2023-05-15T00:37:16.633Z,12.03
2023-05-15T00:39:43.690Z,12.35
2023-05-15T00:42:11.323Z,12.88
2023-05-15T00:44:40.382Z,13.65
2023-05-15T00:47:10.770Z,13.66
2023-05-15T00:49:38.688Z,14.20
2023-05-15T00:52:08.355Z,14.52
2023-05-15T00:54:35.673Z,14.52
2023-05-15T00:57:05.589Z,13.34
2023-05-15T00:59:33.439Z,11.61
2023-05-15T01:02:00.907Z,11.28
2023-05-15T01:04:28.097Z,11.39
2023-05-15T01:06:55.395Z,12.16
2023-05-15T01:09:25.629Z,12.29
2023-05-15T01:11:57.423Z,12.21
2023-05-15T01:14:24.514Z,12.21
2023-05-15T01:16:51.591Z,12.91
2023-05-15T01:19:19.035Z,13.31
2023-05-15T01:22:31.439Z,12.31
2023-05-15T01:25:34.372Z,11.68
2023-05-15T01:28:13.305Z,11.93
2023-05-15T01:30:44.849Z,12.05
2023-05-15T01:33:26.640Z,12.26
2023-05-15T01:36:06.078Z,11.88
2023-05-15T01:38:53.373Z,11.23
2023-05-15T01:41:41.725Z,11.25
2023-05-15T01:47:13.879Z,11.52
2023-05-15T01:49:45.021Z,11.12
2023-05-15T01:52:32.609Z,11.09
2023-05-15T01:55:02.752Z,11.42
2023-05-15T01:57:31.750Z,12.07
2023-05-15T02:00:00.527Z,12.35
2023-05-15T02:02:29.402Z,12.62
2023-05-15T02:04:57.831Z,12.35
2023-05-15T02:07:27.382Z,12.18
2023-05-15T02:09:55.559Z,12.26
2023-05-15T02:12:24.546Z,12.55
2023-05-15T02:14:52.892Z,12.52
2023-05-15T02:17:23.733Z,12.42
2023-05-15T02:19:51.514Z,12.45
2023-05-15T02:22:18.598Z,12.48
2023-05-15T02:24:45.735Z,12.35
2023-05-15T02:27:35.350Z,11.63
2023-05-15T02:30:49.441Z,11.39
2023-05-15T02:34:18.825Z,12.26
2023-05-15T02:36:50.994Z,12.61
2023-05-15T02:39:20.907Z,12.13
2023-05-15T02:41:50.196Z,12.76
2023-05-15T02:44:18.380Z,11.66
2023-05-15T02:46:48.525Z,11.62
2023-05-15T02:49:16.424Z,11.29
2023-05-15T02:51:43.592Z,10.47
2023-05-15T02:54:11.494Z,10.76
2023-05-15T02:56:38.554Z,11.07
2023-05-15T02:59:06.427Z,11.38
2023-05-15T03:01:36.323Z,11.74
2023-05-15T03:04:06.098Z,11.44
2023-05-15T03:06:33.395Z,11.40
2023-05-15T03:09:00.462Z,12.01
2023-05-15T03:11:29.916Z,11.87
2023-05-15T03:13:57.101Z,12.29
2023-05-15T03:16:24.187Z,12.89
2023-05-15T03:18:51.372Z,12.83
2023-05-15T03:21:19.868Z,12.36
2023-05-15T03:23:46.960Z,12.24
2023-05-15T03:26:14.049Z,12.69
2023-05-15T03:28:42.282Z,13.02
2023-05-15T03:31:09.951Z,13.43
2023-05-15T03:33:38.293Z,13.72
2023-05-15T03:36:06.856Z,13.74
2023-05-15T03:38:33.937Z,12.59
2023-05-15T03:41:01.000Z,11.21
2023-05-15T03:43:28.173Z,10.26
2023-05-15T03:45:55.623Z,10.10
2023-05-15T03:48:22.684Z,10.15
2023-05-15T03:50:49.919Z,10.73
2023-05-15T03:53:16.999Z,11.03
2023-05-15T03:55:44.388Z,11.34
2023-05-15T03:58:11.491Z,11.77
2023-05-15T04:00:38.604Z,12.39
2023-05-15T04:03:05.875Z,13.20
2023-05-15T04:05:33.085Z,13.42
2023-05-15T04:08:00.233Z,13.68
2023-05-15T04:10:27.534Z,14.07
2023-05-15T04:12:54.651Z,14.06
2023-05-15T04:15:28.677Z,13.66
2023-05-15T04:17:56.154Z,12.03
2023-05-15T04:20:25.148Z,10.98
2023-05-15T04:22:52.971Z,10.77
2023-05-15T04:25:20.550Z,10.96
2023-05-15T04:27:49.123Z,11.57
2023-05-15T04:30:16.589Z,11.94
2023-05-15T04:32:43.878Z,12.43
2023-05-15T04:35:13.346Z,12.56
2023-05-15T04:37:42.347Z,12.63
2023-05-15T04:40:10.525Z,13.43
2023-05-15T04:42:39.131Z,14.39
2023-05-15T04:45:08.155Z,14.85
2023-05-15T04:47:38.633Z,14.80
2023-05-15T04:50:06.788Z,15.20
2023-05-15T04:52:33.907Z,16.16
2023-05-15T04:55:01.010Z,17.07
2023-05-15T04:57:30.983Z,17.63
2023-05-15T04:59:58.137Z,17.78
2023-05-15T05:02:25.468Z,17.54
2023-05-15T05:04:52.638Z,16.93
2023-05-15T05:07:19.855Z,15.89
2023-05-15T05:09:47.048Z,16.23
2023-05-15T05:12:14.468Z,16.70
2023-05-15T05:14:44.138Z,16.96
2023-05-15T05:17:11.246Z,17.09
2023-05-15T05:19:38.315Z,17.20
2023-05-15T05:22:06.144Z,16.81
2023-05-15T05:24:35.737Z,16.39
2023-05-15T05:27:03.361Z,16.23
2023-05-15T05:29:31.295Z,16.26
2023-05-15T05:31:58.523Z,15.96
2023-05-15T05:34:25.670Z,15.32
2023-05-15T05:36:55.004Z,15.80
2023-05-15T05:39:22.085Z,15.89
2023-05-15T05:41:49.286Z,16.37
2023-05-15T05:44:16.608Z,16.34
2023-05-15T05:46:45.182Z,16.46
2023-05-15T05:49:12.355Z,16.11
2023-05-15T05:51:39.511Z,15.97
2023-05-15T05:54:06.663Z,16.22
2023-05-15T05:56:33.931Z,16.38
2023-05-15T05:59:01.989Z,16.31
2023-05-15T06:01:29.468Z,16.50
2023-05-15T06:03:57.870Z,16.40
2023-05-15T06:06:25.086Z,16.26
2023-05-15T06:08:54.188Z,16.06
2023-05-15T06:11:25.101Z,16.77
2023-05-15T06:13:52.739Z,17.57
2023-05-15T06:16:19.924Z,17.53
2023-05-15T06:18:47.081Z,18.04
2023-05-15T06:21:14.157Z,17.97
2023-05-15T06:23:41.430Z,18.12
2023-05-15T06:26:08.549Z,18.14
2023-05-15T06:28:35.732Z,18.19
2023-05-15T06:31:02.999Z,18.41
2023-05-15T06:33:36.561Z,18.47
2023-05-15T06:36:03.841Z,18.61
2023-05-15T06:38:31.031Z,18.60
2023-05-15T06:40:58.254Z,19.00
2023-05-15T06:43:25.438Z,19.23
2023-05-15T06:45:52.512Z,19.47
2023-05-15T06:48:19.715Z,19.06
2023-05-15T06:50:46.858Z,18.74
2023-05-15T06:53:14.648Z,19.99
2023-05-15T06:55:41.879Z,19.56
2023-05-15T06:58:09.030Z,19.85
2023-05-15T07:00:36.065Z,20.09
2023-05-15T07:03:03.281Z,20.38
2023-05-15T07:05:30.705Z,19.60
2023-05-15T07:07:57.895Z,20.19
2023-05-15T07:10:25.158Z,21.03
2023-05-15T07:12:52.621Z,21.51
2023-05-15T07:15:19.910Z,20.55
2023-05-15T07:17:47.084Z,20.03
2023-05-15T07:20:14.302Z,21.07
2023-05-15T07:22:51.920Z,21.27
2023-05-15T07:25:26.146Z,20.25
2023-05-15T07:27:53.675Z,20.72
2023-05-15T07:30:20.980Z,20.65
2023-05-15T07:32:48.060Z,20.91
2023-05-15T07:35:16.218Z,21.37
2023-05-15T07:37:43.339Z,21.97
2023-05-15T07:40:10.939Z,22.37
2023-05-15T07:42:39.761Z,22.45
2023-05-15T07:45:08.253Z,22.35
2023-05-15T07:47:35.974Z,22.66
2023-05-15T07:50:03.734Z,22.25
2023-05-15T07:52:31.020Z,22.63
2023-05-15T07:54:58.209Z,22.15
2023-05-15T07:57:26.402Z,22.03
2023-05-15T07:59:53.482Z,22.97
2023-05-15T08:02:20.707Z,22.56
2023-05-15T08:04:47.838Z,22.24
2023-05-15T08:07:15.639Z,21.74
2023-05-15T08:09:42.835Z,21.84
2023-05-15T08:12:23.613Z,22.71
2023-05-15T08:14:53.659Z,22.91
2023-05-15T08:17:22.181Z,22.83
2023-05-15T08:19:49.953Z,22.85
2023-05-15T08:22:17.433Z,22.83
2023-05-15T08:24:45.382Z,22.49
2023-05-15T08:27:12.457Z,22.24
2023-05-15T08:29:40.361Z,22.36
2023-05-15T08:32:09.434Z,22.85
2023-05-15T08:34:36.473Z,22.95
2023-05-15T08:37:04.573Z,23.12
2023-05-15T08:39:31.804Z,23.03
2023-05-15T08:42:24.651Z,23.06
2023-05-15T08:44:52.682Z,23.19
2023-05-15T08:47:23.088Z,22.93
2023-05-15T08:50:15.169Z,23.06
2023-05-15T08:52:47.747Z,23.16
2023-05-15T08:55:15.807Z,23.07
2023-05-15T08:57:45.604Z,23.59
2023-05-15T09:00:14.507Z,23.63
2023-05-15T09:02:43.084Z,23.33
2023-05-15T09:05:10.972Z,23.90
2023-05-15T09:07:42.572Z,23.83
2023-05-15T09:10:11.108Z,22.93
2023-05-15T09:12:44.884Z,22.68
2023-05-15T09:15:21.868Z,22.95
2023-05-15T09:17:50.474Z,22.17
2023-05-15T09:20:38.234Z,22.83
2023-05-15T09:23:21.797Z,22.81
2023-05-15T09:25:53.234Z,23.18
2023-05-15T09:28:33.738Z,22.87
2023-05-15T09:31:09.056Z,22.74
2023-05-15T09:33:42.481Z,22.21
2023-05-15T09:36:10.656Z,22.21
2023-05-15T09:38:43.921Z,22.19
2023-05-15T09:41:11.549Z,22.26
2023-05-15T09:43:41.230Z,22.36
2023-05-15T09:46:09.402Z,22.07
2023-05-15T09:48:37.012Z,21.78
2023-05-15T09:51:18.563Z,22.32
2023-05-15T09:53:53.274Z,21.83
2023-05-15T09:56:21.820Z,22.01
2023-05-15T09:58:57.625Z,22.35
2023-05-15T10:01:26.549Z,22.68
2023-05-15T10:04:06.661Z,21.66
2023-05-15T10:06:43.160Z,21.50
2023-05-15T10:09:11.720Z,21.74
2023-05-15T10:11:52.854Z,21.25
2023-05-15T10:14:22.316Z,21.65
2023-05-15T10:16:57.033Z,21.86
2023-05-15T10:19:27.506Z,22.68
2023-05-15T10:21:56.053Z,22.67
2023-05-15T10:24:25.756Z,22.75
2023-05-15T10:26:55.630Z,22.56
2023-05-15T10:29:25.339Z,22.78
2023-05-15T10:31:53.575Z,21.25
2023-05-15T10:34:21.139Z,20.57
2023-05-15T10:36:50.883Z,21.18
2023-05-15T10:39:19.046Z,22.05
2023-05-15T10:41:47.023Z,22.24
2023-05-15T10:44:15.626Z,21.95
2023-05-15T10:46:44.153Z,20.83
2023-05-15T10:49:11.270Z,21.79
2023-05-15T10:51:40.345Z,22.54
2023-05-15T10:54:09.862Z,22.33
2023-05-15T10:56:42.082Z,21.92
2023-05-15T10:59:11.739Z,22.64
2023-05-15T11:01:41.259Z,22.55
2023-05-15T11:04:19.252Z,22.67
2023-05-15T11:06:50.874Z,23.50
2023-05-15T11:09:27.885Z,22.80
2023-05-15T11:12:05.978Z,24.76
2023-05-15T11:15:03.164Z,23.57
2023-05-15T11:17:35.694Z,22.20
2023-05-15T11:20:05.306Z,22.20
2023-05-15T11:22:37.551Z,23.13
2023-05-15T11:25:14.481Z,24.71
2023-05-15T11:27:47.775Z,25.17
2023-05-15T11:30:24.985Z,24.03
2023-05-15T11:33:08.914Z,25.02
2023-05-15T11:35:48.851Z,26.18
2023-05-15T11:38:26.216Z,24.47
2023-05-15T11:40:59.019Z,26.34
2023-05-15T11:43:31.977Z,25.17
2023-05-15T11:46:02.791Z,25.77
2023-05-15T11:48:42.861Z,26.10
2023-05-15T11:51:27.576Z,25.99
2023-05-15T11:53:56.680Z,26.51
2023-05-15T11:56:28.384Z,27.67
2023-05-15T11:59:04.062Z,26.84
2023-05-15T12:01:47.619Z,26.67
2023-05-15T12:04:17.222Z,27.62
2023-05-15T12:06:47.360Z,26.02
2023-05-15T12:09:19.492Z,27.14
2023-05-15T12:11:57.655Z,27.94
2023-05-15T12:14:32.063Z,28.72
2023-05-15T12:17:04.365Z,28.37
2023-05-15T12:19:33.807Z,27.22
2023-05-15T12:22:01.148Z,26.64
2023-05-15T12:24:28.211Z,26.54
2023-05-15T12:26:57.420Z,25.76
2023-05-15T12:29:26.624Z,28.85
2023-05-15T12:31:54.331Z,29.76
2023-05-15T12:34:22.121Z,30.31
2023-05-15T12:36:49.236Z,27.37
2023-05-15T12:39:16.451Z,28.03
2023-05-15T12:41:49.117Z,26.69
2023-05-15T12:44:18.429Z,27.74
2023-05-15T12:46:47.554Z,25.53
2023-05-15T12:49:21.532Z,25.83
2023-05-15T12:51:49.061Z,25.50
2023-05-15T12:54:26.226Z,27.17
2023-05-15T12:56:54.694Z,27.31
2023-05-15T12:59:22.829Z,24.77
2023-05-15T13:01:50.417Z,25.80
2023-05-15T13:04:17.994Z,24.96
2023-05-15T13:07:19.627Z,25.16
2023-05-15T13:10:01.783Z,22.54
2023-05-15T13:12:42.597Z,20.69
2023-05-15T13:15:39.186Z,18.91
2023-05-15T13:18:14.186Z,19.41
2023-05-15T13:20:47.977Z,18.00
2023-05-15T13:23:19.710Z,18.05
2023-05-15T13:25:47.347Z,18.48
2023-05-15T13:28:16.945Z,17.87
2023-05-15T13:30:44.057Z,18.00
2023-05-15T13:33:12.966Z,17.79
2023-05-15T13:35:42.952Z,17.54
2023-05-15T13:38:12.672Z,17.54
2023-05-15T13:40:40.258Z,17.65
2023-05-15T13:43:07.402Z,17.33
2023-05-15T13:45:35.158Z,16.68
2023-05-15T13:48:02.423Z,17.06
2023-05-15T13:50:29.925Z,16.69
2023-05-15T13:52:57.064Z,17.07
2023-05-15T13:55:26.060Z,16.88
2023-05-15T13:58:03.240Z,16.51
2023-05-15T14:00:30.480Z,16.98
2023-05-15T14:02:57.676Z,17.03
2023-05-15T14:05:24.864Z,17.37
2023-05-15T14:07:51.884Z,16.79
2023-05-15T14:10:20.726Z,16.69
2023-05-15T14:12:47.873Z,16.79
2023-05-15T14:15:15.151Z,16.80
2023-05-15T14:17:43.198Z,16.66
2023-05-15T14:20:11.649Z,17.16
2023-05-15T14:22:42.520Z,17.42
2023-05-15T14:25:13.248Z,17.80
2023-05-15T14:27:40.926Z,17.73
2023-05-15T14:30:09.076Z,17.70
2023-05-15T14:32:39.261Z,17.45
2023-05-15T14:35:06.708Z,17.87
2023-05-15T14:37:33.897Z,18.22
2023-05-15T14:40:00.973Z,18.31
2023-05-15T14:42:28.194Z,18.68
2023-05-15T14:44:55.286Z,18.65
2023-05-15T14:47:22.560Z,19.36
2023-05-15T14:49:49.670Z,19.79
2023-05-15T14:52:16.774Z,19.84
2023-05-15T14:54:45.909Z,19.12
2023-05-15T14:57:19.238Z,19.01
2023-05-15T14:59:47.471Z,18.62
2023-05-15T15:02:14.557Z,19.07
2023-05-15T15:04:41.722Z,19.09
2023-05-15T15:07:13.173Z,18.64
2023-05-15T15:09:40.463Z,19.43
2023-05-15T15:12:07.931Z,19.16
2023-05-15T15:14:36.231Z,19.21
2023-05-15T15:17:04.147Z,18.30
2023-05-15T15:19:31.358Z,18.53
2023-05-15T15:21:58.523Z,18.16
2023-05-15T15:24:25.640Z,17.68
2023-05-15T15:26:52.676Z,17.69
2023-05-15T15:29:19.883Z,17.98
2023-05-15T15:31:46.925Z,18.68
2023-05-15T15:34:14.051Z,18.21
2023-05-15T15:36:41.451Z,18.02
2023-05-15T15:39:08.667Z,18.49
2023-05-15T15:41:38.610Z,18.95
2023-05-15T15:44:05.918Z,19.46
2023-05-15T15:46:33.219Z,19.72
2023-05-15T15:49:00.496Z,20.16
2023-05-15T15:51:28.138Z,19.52
2023-05-15T15:53:55.350Z,19.01
2023-05-15T15:56:22.695Z,18.36
2023-05-15T15:58:51.068Z,18.57
2023-05-15T16:01:21.512Z,19.20
2023-05-15T16:03:48.747Z,19.05
2023-05-15T16:06:15.993Z,18.61
2023-05-15T16:08:43.042Z,19.31
2023-05-15T16:11:10.157Z,19.88
2023-05-15T16:13:38.315Z,20.22
2023-05-15T16:16:06.836Z,20.42
2023-05-15T16:18:34.896Z,20.54
2023-05-15T16:21:02.134Z,20.85
2023-05-15T16:23:32.785Z,20.94
2023-05-15T16:25:59.871Z,20.85
2023-05-15T16:28:26.972Z,19.96
2023-05-15T16:30:54.272Z,20.55
2023-05-15T16:33:21.595Z,20.67
2023-05-15T16:35:49.566Z,20.71
2023-05-15T16:38:18.105Z,20.50
2023-05-15T16:40:46.405Z,19.88
2023-05-15T16:43:14.093Z,19.52
2023-05-15T16:45:41.272Z,20.25
2023-05-15T16:48:08.512Z,20.55
2023-05-15T16:50:37.658Z,20.67
2023-05-15T16:53:05.124Z,20.68
2023-05-15T16:55:33.053Z,20.59
2023-05-15T16:58:00.381Z,20.50
2023-05-15T17:00:27.732Z,20.49
2023-05-15T17:05:22.327Z,20.18
2023-05-15T17:07:49.380Z,20.08
2023-05-15T17:10:16.519Z,20.07
2023-05-15T17:12:43.797Z,20.24
2023-05-15T17:15:13.351Z,19.66
2023-05-15T17:17:40.633Z,20.55
2023-05-15T17:20:09.145Z,20.58
2023-05-15T17:22:36.760Z,20.33
2023-05-15T17:25:04.296Z,20.17
2023-05-15T17:27:32.222Z,19.84
2023-05-15T17:29:59.248Z,20.52
2023-05-15T17:32:28.551Z,20.74
2023-05-15T17:34:55.741Z,21.02
2023-05-15T17:37:22.909Z,20.95
2023-05-15T17:39:51.053Z,20.64
2023-05-15T17:42:18.165Z,20.38
2023-05-15T17:44:45.239Z,19.65
2023-05-15T17:47:12.426Z,20.08
2023-05-15T17:49:39.843Z,19.54
2023-05-15T17:52:08.954Z,19.25
2023-05-15T17:54:36.026Z,19.21
2023-05-15T17:57:03.172Z,19.16
2023-05-15T17:59:31.161Z,19.07
2023-05-15T18:01:58.384Z,18.95
2023-05-15T18:04:25.583Z,19.13
2023-05-15T18:06:52.709Z,18.59
2023-05-15T18:09:24.424Z,18.81
2023-05-15T18:11:52.101Z,18.67
2023-05-15T18:14:19.155Z,19.46
2023-05-15T18:16:46.196Z,19.76
2023-05-15T18:19:14.069Z,19.66
2023-05-15T18:21:41.188Z,19.17
2023-05-15T18:24:08.254Z,18.88
2023-05-15T18:26:35.376Z,18.92
2023-05-15T18:29:02.424Z,18.93
2023-05-15T18:31:29.547Z,19.45
2023-05-15T18:33:56.770Z,19.44
2023-05-15T18:36:23.923Z,19.38
2023-05-15T18:38:51.280Z,19.15
2023-05-15T18:41:18.285Z,18.75
2023-05-15T18:43:45.300Z,18.39
2023-05-15T18:46:12.317Z,18.65
2023-05-15T18:48:39.349Z,18.73
2023-05-15T18:51:06.463Z,18.73
2023-05-15T18:53:33.514Z,18.59
2023-05-15T18:56:00.511Z,18.60
2023-05-15T18:58:27.584Z,18.79
2023-05-15T19:00:56.350Z,18.95
2023-05-15T19:03:25.600Z,18.84
2023-05-15T19:05:52.774Z,18.88
2023-05-15T19:08:19.789Z,18.75
2023-05-15T19:10:50.393Z,18.65
2023-05-15T19:13:17.494Z,18.99
2023-05-15T19:15:52.264Z,19.22
2023-05-15T19:18:19.864Z,19.37
2023-05-15T19:20:50.475Z,18.82
2023-05-15T19:23:17.823Z,19.11
2023-05-15T19:25:45.061Z,18.76
2023-05-15T19:28:12.943Z,18.77
2023-05-15T19:30:40.083Z,19.14
2023-05-15T19:33:07.279Z,19.30
2023-05-15T19:35:37.489Z,19.25
2023-05-15T19:38:04.896Z,18.82
2023-05-15T19:40:31.998Z,17.86
2023-05-15T19:42:59.042Z,18.14
2023-05-15T19:45:26.079Z,18.13
2023-05-15T19:47:53.262Z,18.24
2023-05-15T19:50:20.430Z,18.03
2023-05-15T19:52:47.570Z,18.04
2023-05-15T19:55:15.062Z,18.45
2023-05-15T19:57:44.902Z,18.38
2023-05-15T20:00:13.963Z,18.74
2023-05-15T20:02:42.315Z,18.58
2023-05-15T20:05:09.982Z,18.53
2023-05-15T20:07:38.139Z,18.63
2023-05-15T20:10:07.635Z,18.31
2023-05-15T20:12:34.853Z,18.14
2023-05-15T20:15:04.220Z,18.38
2023-05-15T20:17:33.772Z,18.53
2023-05-15T20:20:02.177Z,18.51
2023-05-15T20:22:32.312Z,18.48
2023-05-15T20:25:01.645Z,17.87
2023-05-15T20:27:28.849Z,17.47
2023-05-15T20:29:55.971Z,18.06
2023-05-15T20:32:23.181Z,18.48
2023-05-15T20:34:50.656Z,18.17
2023-05-15T20:37:18.218Z,18.23
2023-05-15T20:39:45.614Z,16.99
2023-05-15T20:42:12.730Z,17.22
2023-05-15T20:44:44.559Z,17.57
2023-05-15T20:47:11.718Z,18.10
2023-05-15T20:49:39.006Z,18.59
2023-05-15T20:52:06.542Z,18.93
2023-05-15T20:54:33.732Z,18.78
2023-05-15T20:57:01.008Z,18.07
2023-05-15T20:59:30.351Z,18.23
2023-05-15T21:01:57.516Z,17.77
2023-05-15T21:04:24.710Z,18.05
2023-05-15T21:06:52.207Z,17.78
2023-05-15T21:09:19.312Z,17.40
2023-05-15T21:11:47.218Z,17.75
2023-05-15T21:14:14.626Z,18.06
2023-05-15T21:16:41.835Z,17.88
2023-05-15T21:19:08.991Z,17.60
2023-05-15T21:21:36.224Z,18.00
2023-05-15T21:24:03.835Z,17.70
2023-05-15T21:26:31.178Z,17.47
2023-05-15T21:29:02.280Z,17.62
2023-05-15T21:31:29.580Z,18.08
2023-05-15T21:33:56.813Z,18.08
2023-05-15T21:36:24.081Z,17.92
2023-05-15T21:38:51.185Z,18.09
2023-05-15T21:41:18.282Z,17.78
2023-05-15T21:43:45.709Z,17.69
2023-05-15T21:46:13.152Z,17.69
2023-05-15T21:48:42.595Z,17.88
2023-05-15T21:51:09.630Z,17.99
2023-05-15T21:53:37.812Z,18.05
2023-05-15T21:56:05.496Z,17.67
2023-05-15T21:58:32.736Z,17.60
2023-05-15T22:00:59.782Z,17.94
2023-05-15T22:03:27.057Z,17.86
2023-05-15T22:05:54.209Z,17.72
2023-05-15T22:08:21.571Z,17.65
2023-05-15T22:10:49.606Z,17.44
2023-05-15T22:13:16.729Z,17.30
2023-05-15T22:15:43.919Z,17.79
2023-05-15T22:18:12.471Z,17.95
2023-05-15T22:20:39.489Z,17.69
2023-05-15T22:23:07.174Z,17.88
2023-05-15T22:25:34.221Z,17.62
2023-05-15T22:28:01.255Z,17.69
2023-05-15T22:31:07.361Z,17.76
2023-05-15T22:33:34.454Z,17.97
2023-05-15T22:36:01.515Z,17.92
2023-05-15T22:38:28.566Z,17.84
2023-05-15T22:40:55.722Z,17.88
2023-05-15T22:43:22.806Z,17.51
2023-05-15T22:45:49.936Z,17.76
2023-05-15T22:48:17.057Z,17.59
2023-05-15T22:50:44.764Z,17.41
2023-05-15T22:53:11.857Z,17.81
2023-05-15T22:55:38.972Z,17.91
2023-05-15T22:58:06.235Z,17.97
2023-05-15T23:00:33.924Z,18.24
2023-05-15T23:03:00.995Z,17.93
2023-05-15T23:05:28.186Z,17.76
2023-05-15T23:07:55.537Z,18.00
2023-05-15T23:10:22.813Z,17.77
2023-05-15T23:12:51.033Z,17.76
2023-05-15T23:15:18.162Z,17.79
2023-05-15T23:17:45.464Z,17.72
2023-05-15T23:20:13.444Z,17.30
2023-05-15T23:22:40.619Z,17.91
2023-05-15T23:25:08.859Z,17.86
2023-05-15T23:27:35.882Z,17.63
2023-05-15T23:30:03.305Z,17.54
2023-05-15T23:32:30.481Z,17.97
2023-05-15T23:34:58.721Z,17.73
2023-05-15T23:37:25.945Z,17.38
2023-05-15T23:39:55.152Z,17.65
2023-05-15T23:42:23.345Z,17.72
2023-05-15T23:44:51.071Z,18.17
2023-05-15T23:47:18.182Z,18.03
2023-05-15T23:49:45.249Z,17.82
2023-05-15T23:52:12.287Z,18.18
2023-05-15T23:54:40.468Z,17.89
2023-05-15T23:57:07.543Z,18.19
2023-05-15T23:59:34.620Z,18.47
